Terminal Aerodrome Forecast
Issued by NWS Paducah, KY

Home | Current Version | Previous Version | Text Only | Print | Product List | Glossary Off
Versions: 1 2 3 4 5 6 7 8 9 10 11 12 13 14

000
FTUS43 KPAH 251502 AAA
TAFEVV
TAF AMD
KEVV 251502Z 2515/2612 21009KT P6SM BKN070
     FM251700 19008G15KT P6SM -SHRA BKN040
      TEMPO 2517/2520 4SM TSRA BKN035CB
     FM260000 17005KT P6SM FEW050 SCT250=

USA.gov is the U.S. government's official web portal to all federal, state and local government web resources and services.